Impacts TAF Board INFO
FOR SITUATIONAL AWARENESS. NOT TO BE USED FOR FLIGHT PLANNING PURPOSES.
IDs:

KEET - Alabaster/Shelby Cnt, AL, US

Issued at 0540 UTC 20 Feb 2018
Updated at 0747 UTC 20 Feb 2018
Potential Impact None Slight Moderate High
Time<<20/20Z 20/21Z 20/22Z 20/23Z 21/00Z 21/01Z 21/02Z 21/03Z 21/04Z 21/05Z 21/06Z 21/07Z 21/08Z>>
Type PRVL PRVL PRVL PRVL PRVL PRVL PRVL PRVL PRVL PRVL
VIS >6 >6 >6 >6 >6 >6 >6 >6 >6 >6
CIG 50 50 50 50 50 50 50 25 25 25
Cover BKN BKN BKN OVC OVC OVC OVC OVC OVC OVC
FltCat VFR VFR VFR VFR VFR VFR VFR MVFR MVFR MVFR
WX -- -- -- -- -- -- -- -- -- --
WDir 160 160 160 160 160 160 160 160 160 160
WSpd 11 11 11 8 8 8 8 6 6 6
WGst 17 17 17 -- -- -- -- -- -- --

Raw TAF
KEET 200540Z 2006/2106 14003KT P6SM BKN045 OVC070
  FM201500 15008KT P6SM OVC025
  FM201800 16011G17KT P6SM BKN050
  FM202300 16008KT P6SM OVC050
  FM210300 16006KT P6SM OVC025


METAR Board
Radar Display
Forecast Discussion

FOR SITUATIONAL AWARENESS. NOT TO BE USED FOR FLIGHT PLANNING PURPOSES.